createdAt,value
2024-01-04T00:00:16.518Z,1.58
2024-01-04T00:02:45.154Z,1.13
2024-01-04T00:05:13.181Z,1.33
2024-01-04T00:07:41.233Z,1.25
2024-01-04T00:10:09.807Z,5.70
2024-01-04T00:12:38.016Z,1.17
2024-01-04T00:15:07.400Z,1.08
2024-01-04T00:17:35.410Z,0.55
2024-01-04T00:20:04.217Z,1.17
2024-01-04T00:22:32.589Z,0.80
2024-01-04T00:25:00.762Z,1.00
2024-01-04T00:27:28.874Z,1.10
2024-01-04T00:34:53.372Z,2.30
2024-01-04T00:37:23.164Z,2.38
2024-01-04T00:39:51.542Z,4.93
2024-01-04T00:42:19.535Z,2.50
2024-01-04T00:44:47.702Z,1.75
2024-01-04T00:47:15.569Z,3.05
2024-01-04T00:49:43.571Z,2.83
2024-01-04T00:52:11.731Z,1.50
2024-01-04T00:54:39.641Z,4.45
2024-01-04T00:57:09.630Z,3.47
2024-01-04T00:59:37.752Z,5.28
2024-01-04T01:02:05.985Z,3.50
2024-01-04T01:04:34.040Z,2.00
2024-01-04T01:07:01.908Z,3.80
2024-01-04T01:09:29.945Z,2.83
2024-01-04T01:11:58.142Z,2.70
2024-01-04T01:14:26.551Z,2.58
2024-01-04T01:16:54.427Z,1.45
2024-01-04T01:19:22.608Z,1.48
2024-01-04T01:21:50.618Z,3.13
2024-01-04T01:24:18.970Z,3.28
2024-01-04T01:26:47.105Z,1.02
2024-01-04T01:29:15.187Z,2.17
2024-01-04T01:31:44.129Z,0.57
2024-01-04T01:36:43.581Z,1.60
2024-01-04T01:39:12.653Z,2.65
2024-01-04T01:41:40.816Z,1.55
2024-01-04T01:44:08.996Z,2.35
2024-01-04T01:46:37.388Z,2.28
2024-01-04T01:49:05.457Z,2.53
2024-01-04T01:51:33.535Z,2.97
2024-01-04T01:54:02.654Z,2.88
2024-01-04T01:56:32.416Z,4.18
2024-01-04T02:02:51.175Z,0.80
2024-01-04T02:10:15.322Z,0.85
2024-01-04T02:12:44.020Z,2.35
2024-01-04T02:15:12.173Z,0.45
2024-01-04T02:17:41.355Z,3.08
2024-01-04T02:20:12.632Z,1.52
2024-01-04T02:22:45.575Z,1.25
2024-01-04T02:25:13.521Z,1.17
2024-01-04T02:27:41.481Z,2.38
2024-01-04T02:30:09.844Z,1.10
2024-01-04T02:32:38.108Z,1.10
2024-01-04T02:35:06.684Z,1.45
2024-01-04T02:37:34.670Z,1.23
2024-01-04T02:40:02.812Z,1.20
2024-01-04T02:42:32.470Z,1.35
2024-01-04T02:45:00.769Z,1.02
2024-01-04T02:47:28.821Z,1.23
2024-01-04T02:49:56.697Z,0.90
2024-01-04T02:52:24.657Z,1.25
2024-01-04T02:54:52.569Z,0.85
2024-01-04T02:57:20.569Z,1.00
2024-01-04T03:03:13.709Z,0.93
2024-01-04T03:05:41.996Z,1.20
2024-01-04T03:08:09.887Z,1.35
2024-01-04T03:10:37.805Z,2.08
2024-01-04T03:13:08.178Z,1.42
2024-01-04T03:15:36.156Z,0.68
2024-01-04T03:18:04.450Z,1.48
2024-01-04T03:20:32.423Z,0.73
2024-01-04T03:23:00.498Z,1.10
2024-01-04T03:25:28.460Z,1.52
2024-01-04T03:27:56.336Z,1.17
2024-01-04T03:30:24.424Z,7.65
2024-01-04T03:32:52.712Z,2.42
2024-01-04T03:35:20.745Z,1.30
2024-01-04T03:37:48.669Z,1.10
2024-01-04T03:40:16.840Z,1.05
2024-01-04T03:42:44.813Z,2.17
2024-01-04T03:45:12.768Z,1.38
2024-01-04T03:47:41.369Z,1.10
2024-01-04T03:50:09.571Z,1.60
2024-01-04T03:52:37.532Z,1.90
2024-01-04T03:55:05.868Z,4.35
2024-01-04T03:57:35.733Z,6.40
2024-01-04T04:00:04.776Z,4.88
2024-01-04T04:02:40.085Z,5.90
2024-01-04T04:05:08.430Z,2.33
2024-01-04T04:07:36.458Z,2.67
2024-01-04T04:10:04.759Z,4.25
2024-01-04T04:12:32.770Z,4.93
2024-01-04T04:15:02.466Z,6.95
2024-01-04T04:17:31.771Z,2.17
2024-01-04T04:19:59.918Z,1.92
2024-01-04T04:22:27.841Z,1.20
2024-01-04T04:24:55.815Z,1.00
2024-01-04T04:27:23.730Z,1.02
2024-01-04T04:29:51.708Z,2.03
2024-01-04T04:32:19.910Z,0.80
2024-01-04T04:34:48.089Z,0.90
2024-01-04T04:37:16.286Z,0.88
2024-01-04T04:39:46.349Z,1.38
2024-01-04T04:42:14.501Z,1.35
2024-01-04T04:44:42.652Z,2.03
2024-01-04T04:47:10.744Z,1.25
2024-01-04T04:49:38.680Z,1.00
2024-01-04T04:52:06.886Z,0.75
2024-01-04T04:54:37.822Z,1.02
2024-01-04T04:57:06.662Z,0.88
2024-01-04T04:59:34.858Z,1.23
2024-01-04T05:02:02.996Z,0.75
2024-01-04T05:04:30.902Z,1.25
2024-01-04T05:06:58.976Z,1.27
2024-01-04T05:09:27.072Z,1.02
2024-01-04T05:11:55.311Z,3.30
2024-01-04T05:14:23.278Z,1.48
2024-01-04T05:16:51.600Z,0.73
2024-01-04T05:19:19.846Z,0.73
2024-01-04T05:21:47.883Z,1.00
2024-01-04T05:24:15.825Z,1.75
2024-01-04T05:26:43.903Z,2.50
2024-01-04T05:29:11.766Z,0.82
2024-01-04T05:31:39.709Z,0.80
2024-01-04T05:34:07.888Z,1.42
2024-01-04T05:36:36.116Z,2.90
2024-01-04T05:39:04.818Z,2.38
2024-01-04T05:41:33.193Z,14.05
2024-01-04T05:44:01.222Z,9.50
2024-01-04T05:46:29.280Z,3.75
2024-01-04T05:48:57.408Z,1.83
2024-01-04T05:51:25.552Z,4.00
2024-01-04T05:54:10.270Z,4.28
2024-01-04T05:56:38.944Z,4.70
2024-01-04T05:59:07.001Z,2.58
2024-01-04T06:01:35.374Z,5.28
2024-01-04T06:04:03.449Z,6.05
2024-01-04T06:06:31.608Z,6.57
2024-01-04T06:08:59.665Z,4.03
2024-01-04T06:11:27.728Z,3.78
2024-01-04T06:13:56.129Z,6.88
2024-01-04T06:16:24.206Z,5.53
2024-01-04T06:18:53.078Z,9.48
2024-01-04T06:21:21.295Z,7.10
2024-01-04T06:23:49.250Z,14.45
2024-01-04T06:26:20.709Z,4.10
2024-01-04T06:28:51.233Z,20.92
2024-01-04T06:31:19.300Z,7.28
2024-01-04T06:33:47.556Z,11.98
2024-01-04T06:36:15.683Z,21.08
2024-01-04T06:38:43.581Z,16.17
2024-01-04T06:41:13.432Z,9.48
2024-01-04T06:43:41.507Z,27.15
2024-01-04T06:46:12.014Z,11.38
2024-01-04T06:48:41.778Z,31.40
2024-01-04T06:51:10.049Z,40.22
2024-01-04T06:53:38.279Z,33.88
2024-01-04T06:56:07.343Z,19.15
2024-01-04T07:01:03.154Z,13.45
2024-01-04T07:03:31.859Z,6.40
2024-01-04T07:06:00.018Z,6.07
2024-01-04T07:08:28.069Z,3.60
2024-01-04T07:10:55.915Z,4.25
2024-01-04T07:13:23.897Z,4.30
2024-01-04T07:15:51.822Z,7.95
2024-01-04T07:18:19.940Z,4.18
2024-01-04T07:20:48.230Z,4.70
2024-01-04T07:23:16.720Z,4.60
2024-01-04T07:25:45.281Z,5.93
2024-01-04T07:28:13.184Z,12.75
2024-01-04T07:30:41.689Z,2.40
2024-01-04T07:33:10.010Z,4.47
2024-01-04T07:35:38.674Z,12.88
2024-01-04T07:38:06.813Z,6.95
2024-01-04T07:40:34.859Z,4.10
2024-01-04T07:43:02.842Z,6.90
2024-01-04T07:45:30.890Z,3.35
2024-01-04T07:47:58.995Z,5.85
2024-01-04T07:50:27.920Z,6.88
2024-01-04T07:52:56.973Z,2.97
2024-01-04T07:55:25.062Z,1.80
2024-01-04T07:57:53.370Z,3.00
2024-01-04T08:00:21.664Z,3.08
2024-01-04T08:02:49.723Z,3.30
2024-01-04T08:05:17.987Z,4.22
2024-01-04T08:07:45.985Z,1.95
2024-01-04T08:10:14.071Z,1.38
2024-01-04T08:12:42.431Z,1.50
2024-01-04T08:15:11.406Z,1.85
2024-01-04T08:17:39.862Z,3.88
2024-01-04T08:20:08.873Z,3.97
2024-01-04T08:25:05.842Z,3.53
2024-01-04T08:27:33.885Z,2.13
2024-01-04T08:30:01.963Z,1.88
2024-01-04T08:32:30.053Z,2.22
2024-01-04T08:34:58.071Z,2.88
2024-01-04T08:37:26.153Z,1.63
2024-01-04T08:39:54.497Z,2.67
2024-01-04T08:42:22.579Z,1.27
2024-01-04T08:44:50.613Z,6.97
2024-01-04T08:47:18.582Z,2.28
2024-01-04T08:49:46.620Z,2.85
2024-01-04T08:52:14.652Z,1.40
2024-01-04T08:54:43.853Z,1.38
2024-01-04T08:57:11.958Z,1.77
2024-01-04T08:59:39.995Z,1.52
2024-01-04T09:02:10.536Z,2.90
2024-01-04T09:04:39.412Z,1.35
2024-01-04T09:07:08.650Z,2.42
2024-01-04T09:09:37.039Z,1.35
2024-01-04T09:12:05.424Z,1.58
2024-01-04T09:14:33.882Z,1.63
2024-01-04T09:17:02.167Z,1.15
2024-01-04T09:19:30.310Z,2.45
2024-01-04T09:21:58.674Z,1.25
2024-01-04T09:24:26.788Z,2.10
2024-01-04T09:26:54.760Z,1.85
2024-01-04T09:29:22.850Z,1.75
2024-01-04T09:31:50.880Z,1.50
2024-01-04T09:34:19.152Z,3.08
2024-01-04T09:36:47.536Z,3.13
2024-01-04T09:39:19.592Z,1.20
2024-01-04T09:41:49.613Z,2.83
2024-01-04T09:44:18.019Z,2.92
2024-01-04T09:46:46.820Z,1.98
2024-01-04T09:49:15.666Z,2.13
2024-01-04T09:51:44.095Z,2.88
2024-01-04T09:54:12.941Z,2.08
2024-01-04T09:56:47.765Z,1.98
2024-01-04T09:59:15.954Z,1.88
2024-01-04T10:01:44.636Z,2.10
2024-01-04T10:04:14.601Z,1.88
2024-01-04T10:06:45.054Z,1.40
2024-01-04T10:09:55.349Z,2.05
2024-01-04T10:12:24.635Z,1.65
2024-01-04T10:14:52.736Z,1.40
2024-01-04T10:17:21.025Z,1.63
2024-01-04T10:19:49.069Z,1.55
2024-01-04T10:22:23.438Z,1.33
2024-01-04T10:24:53.121Z,2.30
2024-01-04T10:27:21.642Z,1.60
2024-01-04T10:29:53.106Z,2.17
2024-01-04T10:32:21.261Z,0.60
2024-01-04T10:34:49.245Z,1.20
2024-01-04T10:37:23.817Z,1.13
2024-01-04T10:39:59.601Z,1.73
2024-01-04T10:42:28.463Z,2.42
2024-01-04T10:44:56.721Z,2.67
2024-01-04T10:47:25.359Z,1.45
2024-01-04T10:49:59.437Z,1.83
2024-01-04T10:52:35.250Z,1.02
2024-01-04T10:55:05.379Z,1.50
2024-01-04T10:57:35.086Z,1.40
2024-01-04T11:00:05.110Z,0.80
2024-01-04T11:02:35.051Z,1.40
2024-01-04T11:05:05.228Z,2.08
2024-01-04T11:07:35.198Z,1.02
2024-01-04T11:10:03.318Z,1.50
2024-01-04T11:12:32.915Z,2.20
2024-01-04T11:15:01.147Z,1.52
2024-01-04T11:17:54.556Z,0.73
2024-01-04T11:20:36.966Z,4.50
2024-01-04T11:23:22.444Z,0.40
2024-01-04T11:26:02.401Z,1.20
2024-01-04T11:28:39.464Z,2.05
2024-01-04T11:31:09.105Z,2.13
2024-01-04T11:33:44.158Z,0.65
2024-01-04T11:36:18.001Z,4.03
2024-01-04T11:38:47.646Z,2.55
2024-01-04T11:41:15.692Z,2.72
2024-01-04T11:43:48.047Z,2.03
2024-01-04T11:46:24.069Z,3.33
2024-01-04T11:49:03.759Z,0.75
2024-01-04T11:51:46.577Z,1.73
2024-01-04T11:54:17.033Z,1.92
2024-01-04T11:56:47.045Z,1.70
2024-01-04T11:59:19.909Z,1.85
2024-01-04T12:01:48.345Z,1.25
2024-01-04T12:04:17.536Z,1.92
2024-01-04T12:06:47.464Z,0.90
2024-01-04T12:09:19.106Z,2.45
2024-01-04T12:11:59.040Z,4.05
2024-01-04T12:14:27.801Z,1.10
2024-01-04T12:19:23.812Z,1.15
2024-01-04T12:24:21.027Z,1.05
2024-01-04T12:26:49.938Z,1.55
2024-01-04T12:29:18.151Z,1.00
2024-01-04T12:31:46.502Z,0.90
2024-01-04T12:34:14.951Z,1.08
2024-01-04T12:39:15.264Z,1.88
2024-01-04T12:41:46.763Z,3.05
2024-01-04T12:44:15.865Z,1.23
2024-01-04T12:46:45.685Z,0.85
2024-01-04T12:49:17.527Z,2.47
2024-01-04T12:51:48.184Z,1.38
2024-01-04T12:54:16.670Z,0.93
2024-01-04T12:56:44.821Z,1.23
2024-01-04T12:59:14.182Z,1.17
2024-01-04T13:01:42.228Z,2.03
2024-01-04T13:04:10.188Z,1.92
2024-01-04T13:06:38.567Z,2.30
2024-01-04T13:09:07.326Z,1.30
2024-01-04T13:14:04.017Z,2.40
2024-01-04T13:19:00.367Z,2.15
2024-01-04T13:21:28.624Z,2.72
2024-01-04T13:23:57.049Z,1.13
2024-01-04T13:26:25.267Z,1.27
2024-01-04T13:28:53.480Z,1.60
2024-01-04T13:31:22.145Z,1.40
2024-01-04T13:33:50.527Z,3.50
2024-01-04T13:36:19.488Z,4.40
2024-01-04T13:38:47.776Z,1.98
2024-01-04T13:41:15.850Z,4.00
2024-01-04T13:43:44.010Z,4.72
2024-01-04T13:46:11.990Z,2.35
2024-01-04T13:48:40.370Z,10.57
2024-01-04T13:51:08.799Z,2.63
2024-01-04T13:53:36.823Z,3.55
2024-01-04T13:56:05.205Z,2.50
2024-01-04T13:58:33.380Z,1.38
2024-01-04T14:01:01.373Z,3.13
2024-01-04T14:03:29.427Z,9.25
2024-01-04T14:05:57.652Z,3.50
2024-01-04T14:08:26.924Z,2.97
2024-01-04T14:10:57.368Z,28.98
2024-01-04T14:13:25.343Z,5.38
2024-01-04T14:15:53.282Z,3.53
2024-01-04T14:22:56.515Z,3.15
2024-01-04T14:25:24.780Z,2.63
2024-01-04T14:27:52.741Z,5.90
2024-01-04T14:30:20.993Z,4.63
2024-01-04T14:32:49.793Z,3.22
2024-01-04T14:35:17.963Z,5.47
2024-01-04T14:37:46.094Z,4.10
2024-01-04T14:40:19.692Z,7.60
2024-01-04T14:42:48.841Z,8.95
2024-01-04T14:47:47.489Z,5.18
2024-01-04T14:50:17.245Z,2.55
2024-01-04T14:52:45.705Z,1.95
2024-01-04T14:55:14.316Z,4.80
2024-01-04T14:57:43.954Z,4.88
2024-01-04T15:00:13.985Z,3.40
2024-01-04T15:02:42.489Z,9.20
2024-01-04T15:05:11.305Z,10.10
2024-01-04T15:07:40.260Z,11.15
2024-01-04T15:10:10.717Z,9.90
2024-01-04T15:12:41.316Z,4.80
2024-01-04T15:15:17.045Z,16.08
2024-01-04T15:17:52.312Z,16.83
2024-01-04T15:20:20.856Z,8.13
2024-01-04T15:22:49.190Z,22.27
2024-01-04T15:25:17.764Z,7.45
2024-01-04T15:27:46.383Z,6.20
2024-01-04T15:46:30.819Z,22.85
2024-01-04T15:48:59.692Z,18.23
2024-01-04T15:51:28.562Z,25.90
2024-01-04T15:54:00.333Z,5.85
2024-01-04T15:56:32.616Z,7.05
2024-01-04T15:59:01.729Z,8.65
2024-01-04T16:01:30.691Z,6.57
2024-01-04T16:04:00.072Z,5.80
2024-01-04T16:06:28.785Z,4.82
2024-01-04T16:08:58.019Z,3.63
2024-01-04T16:11:26.751Z,5.03
2024-01-04T16:13:55.670Z,4.45
2024-01-04T16:16:24.666Z,3.00
2024-01-04T16:18:53.951Z,5.95
2024-01-04T16:21:22.686Z,4.50
2024-01-04T16:23:52.170Z,4.78
2024-01-04T16:26:21.173Z,7.65
2024-01-04T16:28:49.929Z,13.82
2024-01-04T16:31:18.672Z,15.38
2024-01-04T16:33:49.084Z,5.53
2024-01-04T16:36:18.857Z,12.68
2024-01-04T16:38:48.278Z,15.57
2024-01-04T16:41:16.827Z,5.85
2024-01-04T16:43:45.482Z,6.30
2024-01-04T16:46:14.002Z,14.38
2024-01-04T16:48:42.986Z,8.70
2024-01-04T16:51:14.360Z,10.60
2024-01-04T16:53:44.150Z,18.90
2024-01-04T16:56:13.577Z,12.20
2024-01-04T16:58:42.256Z,10.75
2024-01-04T17:01:11.248Z,17.40
2024-01-04T17:04:01.767Z,12.63
2024-01-04T17:06:31.039Z,9.38
2024-01-04T17:09:02.436Z,19.17
2024-01-04T17:11:30.904Z,13.38
2024-01-04T17:13:59.431Z,11.02
2024-01-04T17:16:27.874Z,10.95
2024-01-04T17:18:56.749Z,11.27
2024-01-04T17:21:25.483Z,9.60
2024-01-04T17:23:54.248Z,11.95
2024-01-04T17:26:23.021Z,16.65
2024-01-04T17:28:51.636Z,10.68
2024-01-04T17:31:21.498Z,14.07
2024-01-04T17:33:50.222Z,12.77
2024-01-04T17:36:25.884Z,8.07
2024-01-04T17:39:01.462Z,8.45
2024-01-04T17:41:32.831Z,5.05
2024-01-04T17:44:01.000Z,7.03
2024-01-04T17:46:29.096Z,9.13
2024-01-04T17:48:57.991Z,6.82
2024-01-04T17:51:26.415Z,7.13
2024-01-04T17:53:54.554Z,8.60
2024-01-04T17:56:23.278Z,7.90
2024-01-04T17:58:51.286Z,7.40
2024-01-04T18:01:23.586Z,6.30
2024-01-04T18:03:52.266Z,11.27
2024-01-04T18:06:21.243Z,11.90
2024-01-04T18:08:53.336Z,5.38
2024-01-04T18:11:23.152Z,10.48
2024-01-04T18:13:51.789Z,8.18
2024-01-04T18:16:20.674Z,8.20
2024-01-04T18:18:50.289Z,7.38
2024-01-04T18:21:20.582Z,6.93
2024-01-04T18:23:50.240Z,5.50
2024-01-04T18:26:19.007Z,8.93
2024-01-04T18:28:47.803Z,11.73
2024-01-04T18:31:16.579Z,14.13
2024-01-04T18:33:45.804Z,15.57
2024-01-04T18:36:15.280Z,16.50
2024-01-04T18:38:48.002Z,27.15
2024-01-04T18:41:24.192Z,46.40
2024-01-04T18:43:53.194Z,18.20
2024-01-04T18:46:21.829Z,17.88
2024-01-04T18:48:50.529Z,15.93
2024-01-04T18:53:49.104Z,6.82
2024-01-04T18:56:18.285Z,9.07
2024-01-04T19:01:15.667Z,9.35
2024-01-04T19:03:44.360Z,9.77
2024-01-04T19:06:13.285Z,10.50
2024-01-04T19:11:12.044Z,16.00
2024-01-04T19:13:42.313Z,16.45
2024-01-04T19:16:11.051Z,19.40
2024-01-04T19:18:50.078Z,18.52
2024-01-04T19:21:20.853Z,21.35
2024-01-04T19:23:49.778Z,18.15
2024-01-04T19:26:18.724Z,24.15
2024-01-04T19:28:49.067Z,16.38
2024-01-04T19:31:22.352Z,17.38
2024-01-04T19:33:52.210Z,18.45
2024-01-04T19:36:21.086Z,19.25
2024-01-04T19:38:49.833Z,17.65
2024-01-04T19:41:20.775Z,20.08
2024-01-04T19:43:49.558Z,28.77
2024-01-04T19:46:19.448Z,28.95
2024-01-04T19:48:48.304Z,37.40
2024-01-04T19:51:17.251Z,37.08
2024-01-04T19:53:45.950Z,31.45
2024-01-04T19:56:14.745Z,35.83
2024-01-04T20:01:13.498Z,30.98
2024-01-04T20:03:43.657Z,46.40
2024-01-04T20:06:12.461Z,32.03
2024-01-04T20:08:41.138Z,33.35
2024-01-04T20:11:11.178Z,28.83
2024-01-04T20:13:59.950Z,22.02
2024-01-04T20:16:28.979Z,20.35
2024-01-04T20:18:58.210Z,22.20
2024-01-04T20:21:49.569Z,18.23
2024-01-04T20:24:19.294Z,17.20
2024-01-04T20:26:47.841Z,20.80
2024-01-04T20:29:18.754Z,47.80
2024-01-04T20:31:48.257Z,87.05
2024-01-04T20:34:17.197Z,28.90
2024-01-04T20:39:16.018Z,13.65
2024-01-04T20:41:45.210Z,59.25
2024-01-04T20:46:43.119Z,25.50
2024-01-04T20:49:12.474Z,13.45
2024-01-04T20:51:41.424Z,10.98
2024-01-04T20:54:11.702Z,23.08
2024-01-04T20:56:40.963Z,24.13
2024-01-04T20:59:12.997Z,24.95
2024-01-04T21:01:41.726Z,17.35
2024-01-04T21:04:10.648Z,24.27
2024-01-04T21:06:41.062Z,26.10
2024-01-04T21:09:12.909Z,27.05
2024-01-04T21:11:41.666Z,22.77
2024-01-04T21:14:25.057Z,31.88
2024-01-04T21:16:53.430Z,25.85
2024-01-04T21:19:21.709Z,22.55
2024-01-04T21:21:50.236Z,25.45
2024-01-04T21:24:19.057Z,23.40
2024-01-04T21:26:47.828Z,23.73
2024-01-04T21:29:16.688Z,33.22
2024-01-04T21:31:44.923Z,32.92
2024-01-04T21:34:14.067Z,27.60
2024-01-04T21:36:43.131Z,21.02
2024-01-04T21:39:13.060Z,16.23
2024-01-04T21:41:45.015Z,18.98
2024-01-04T21:44:13.898Z,12.30
2024-01-04T21:46:43.059Z,11.18
2024-01-04T21:49:11.690Z,14.07
2024-01-04T21:51:40.123Z,30.60
2024-01-04T21:54:08.703Z,16.42
2024-01-04T21:56:37.378Z,13.00
2024-01-04T21:59:26.228Z,12.70
2024-01-04T22:01:58.089Z,13.05
2024-01-04T22:04:26.776Z,14.27
2024-01-04T22:06:55.321Z,9.27
2024-01-04T22:09:23.538Z,12.05
2024-01-04T22:11:51.601Z,13.88
2024-01-04T22:14:19.573Z,8.63
2024-01-04T22:16:47.498Z,14.35
2024-01-04T22:19:15.932Z,13.25
2024-01-04T22:21:44.020Z,17.40
2024-01-04T22:24:11.943Z,17.48
2024-01-04T22:26:41.001Z,19.48
2024-01-04T22:29:11.910Z,13.38
2024-01-04T22:31:39.846Z,12.60
2024-01-04T22:34:08.462Z,23.27
2024-01-04T22:36:38.989Z,23.00
2024-01-04T22:39:07.014Z,25.90
2024-01-04T22:41:35.121Z,28.00
2024-01-04T22:44:03.020Z,19.77
2024-01-04T22:46:31.111Z,18.83
2024-01-04T22:48:59.067Z,21.50
2024-01-04T22:51:30.474Z,18.85
2024-01-04T22:53:58.709Z,17.02
2024-01-04T22:56:26.646Z,13.68
2024-01-04T22:58:54.624Z,9.63
2024-01-04T23:01:22.805Z,9.65
2024-01-04T23:03:51.330Z,11.05
2024-01-04T23:06:19.370Z,23.13
2024-01-04T23:08:47.978Z,19.92
2024-01-04T23:11:15.928Z,16.38
2024-01-04T23:13:43.828Z,26.15
2024-01-04T23:16:14.914Z,26.63
2024-01-04T23:18:43.123Z,23.45
2024-01-04T23:21:11.265Z,17.15
2024-01-04T23:23:39.277Z,29.48
2024-01-04T23:26:07.254Z,27.42
2024-01-04T23:28:35.645Z,33.38
2024-01-04T23:31:03.664Z,33.85
2024-01-04T23:33:37.306Z,46.45
2024-01-04T23:36:10.950Z,40.55
2024-01-04T23:38:39.029Z,38.63
2024-01-04T23:41:07.214Z,49.70
2024-01-04T23:43:35.212Z,37.38
2024-01-04T23:46:03.181Z,32.70
2024-01-04T23:48:31.382Z,27.77
2024-01-04T23:50:59.845Z,26.65
2024-01-04T23:53:27.898Z,28.52
2024-01-04T23:55:55.946Z,21.20
2024-01-04T23:58:23.785Z,18.80
